createdAt,value
2023-03-13T00:01:25.119Z,99.90
2023-03-13T00:03:52.012Z,99.90
2023-03-13T00:06:19.057Z,99.90
2023-03-13T00:08:45.927Z,99.90
2023-03-13T00:11:14.364Z,99.90
2023-03-13T00:13:42.935Z,99.90
2023-03-13T00:16:14.194Z,99.90
2023-03-13T00:18:46.686Z,99.90
2023-03-13T00:21:13.364Z,99.90
2023-03-13T00:23:40.291Z,99.90
2023-03-13T00:26:09.465Z,99.90
2023-03-13T00:28:37.647Z,99.90
2023-03-13T00:31:06.491Z,99.90
2023-03-13T00:33:34.565Z,99.90
2023-03-13T00:36:04.938Z,99.90
2023-03-13T00:38:32.489Z,99.90
2023-03-13T00:41:00.974Z,99.90
2023-03-13T00:43:28.080Z,99.90
2023-03-13T00:45:54.948Z,99.90
2023-03-13T00:48:22.329Z,99.90
2023-03-13T00:50:49.513Z,99.90
2023-03-13T00:53:16.290Z,99.90
2023-03-13T00:56:00.601Z,99.90
2023-03-13T00:58:28.870Z,99.90
2023-03-13T01:00:56.230Z,99.90
2023-03-13T01:03:26.114Z,99.90
2023-03-13T01:06:02.395Z,99.90
2023-03-13T01:08:29.700Z,99.90
2023-03-13T01:11:07.092Z,99.90
2023-03-13T01:13:34.390Z,99.90
2023-03-13T01:16:04.478Z,99.90
2023-03-13T01:18:31.435Z,99.90
2023-03-13T01:20:58.158Z,99.90
2023-03-13T01:23:25.746Z,99.90
2023-03-13T01:25:53.807Z,99.90
2023-03-13T01:28:20.545Z,99.90
2023-03-13T01:30:47.318Z,99.90
2023-03-13T01:33:14.075Z,99.90
2023-03-13T01:35:42.034Z,99.90
2023-03-13T01:38:09.081Z,99.90
2023-03-13T01:40:45.840Z,99.90
2023-03-13T01:43:26.184Z,99.90
2023-03-13T01:45:59.331Z,99.90
2023-03-13T01:48:43.326Z,99.90
2023-03-13T01:51:21.330Z,99.90
2023-03-13T01:53:52.669Z,99.90
2023-03-13T01:56:23.695Z,99.90
2023-03-13T01:58:52.263Z,99.90
2023-03-13T02:01:20.154Z,99.90
2023-03-13T02:03:50.011Z,99.90
2023-03-13T02:06:17.832Z,99.90
2023-03-13T02:08:52.688Z,99.90
2023-03-13T02:11:28.901Z,99.90
2023-03-13T02:13:56.472Z,99.90
2023-03-13T02:16:24.102Z,99.90
2023-03-13T02:18:50.888Z,99.90
2023-03-13T02:21:32.018Z,99.90
2023-03-13T02:24:09.952Z,99.90
2023-03-13T02:26:36.681Z,99.90
2023-03-13T02:29:03.471Z,99.90
2023-03-13T02:31:31.593Z,99.90
2023-03-13T02:34:00.670Z,99.90
2023-03-13T02:36:30.533Z,99.90
2023-03-13T02:39:02.619Z,99.90
2023-03-13T02:41:30.221Z,99.90
2023-03-13T02:43:56.982Z,99.90
2023-03-13T02:46:23.707Z,99.90
2023-03-13T02:48:52.864Z,99.90
2023-03-13T02:51:29.465Z,99.90
2023-03-13T02:54:01.825Z,99.90
2023-03-13T02:56:33.600Z,99.90
2023-03-13T02:59:00.550Z,99.90
2023-03-13T03:01:27.259Z,99.90
2023-03-13T03:03:54.017Z,99.90
2023-03-13T03:06:21.158Z,99.90
2023-03-13T03:08:47.929Z,99.90
2023-03-13T03:11:14.747Z,99.90
2023-03-13T03:13:41.632Z,99.90
2023-03-13T03:16:11.931Z,99.90
2023-03-13T03:18:39.145Z,99.90
2023-03-13T03:21:06.779Z,99.90
2023-03-13T03:23:34.274Z,99.90
2023-03-13T03:26:01.744Z,99.90
2023-03-13T03:28:28.913Z,99.90
2023-03-13T03:30:57.769Z,99.90
2023-03-13T03:33:24.791Z,99.90
2023-03-13T03:35:51.485Z,99.90
2023-03-13T03:38:18.271Z,99.90
2023-03-13T03:40:44.994Z,99.90
2023-03-13T03:43:11.651Z,99.90
2023-03-13T03:45:38.284Z,99.90
2023-03-13T03:48:05.275Z,99.90
2023-03-13T03:50:31.934Z,99.90
2023-03-13T03:52:58.606Z,99.90
2023-03-13T03:55:25.293Z,99.90
2023-03-13T03:57:52.051Z,99.90
2023-03-13T04:00:19.808Z,99.90
2023-03-13T04:02:46.466Z,99.90
2023-03-13T04:05:13.276Z,99.90
2023-03-13T04:07:39.947Z,99.90
2023-03-13T04:10:07.271Z,99.90
2023-03-13T04:12:34.096Z,99.90
2023-03-13T04:15:00.776Z,99.90
2023-03-13T04:17:27.610Z,99.90
2023-03-13T04:19:54.258Z,99.90
2023-03-13T04:22:20.974Z,99.90
2023-03-13T04:24:47.734Z,99.90
2023-03-13T04:27:15.525Z,99.90
2023-03-13T04:29:42.223Z,99.90
2023-03-13T04:32:08.942Z,99.90
2023-03-13T04:34:35.842Z,99.90
2023-03-13T04:37:02.814Z,99.90
2023-03-13T04:39:30.950Z,99.90
2023-03-13T04:41:58.665Z,99.90
2023-03-13T04:44:25.372Z,99.90
2023-03-13T04:46:52.114Z,99.90
2023-03-13T04:49:19.179Z,99.90
2023-03-13T04:51:46.258Z,99.90
2023-03-13T04:54:13.329Z,99.90
2023-03-13T04:56:44.370Z,99.90
2023-03-13T04:59:12.906Z,99.90
2023-03-13T05:01:40.814Z,99.90
2023-03-13T05:04:08.455Z,99.90
2023-03-13T05:06:35.191Z,99.90
2023-03-13T05:09:02.828Z,99.90
2023-03-13T05:11:30.065Z,99.90
2023-03-13T05:13:56.935Z,99.90
2023-03-13T05:16:23.752Z,99.90
2023-03-13T05:18:50.415Z,99.90
2023-03-13T05:21:17.359Z,99.90
2023-03-13T05:23:44.148Z,99.90
2023-03-13T05:26:10.886Z,99.90
2023-03-13T05:28:37.592Z,99.90
2023-03-13T05:31:04.539Z,99.90
2023-03-13T05:33:31.270Z,99.90
2023-03-13T05:35:57.937Z,99.90
2023-03-13T05:38:25.368Z,99.90
2023-03-13T05:40:51.999Z,99.90
2023-03-13T05:43:18.630Z,99.90
2023-03-13T05:45:45.326Z,99.90
2023-03-13T05:48:11.949Z,99.90
2023-03-13T05:50:38.725Z,99.90
2023-03-13T05:53:05.421Z,99.90
2023-03-13T05:55:32.097Z,99.90
2023-03-13T05:57:58.833Z,99.90
2023-03-13T06:00:25.626Z,99.90
2023-03-13T06:02:52.306Z,99.90
2023-03-13T06:05:18.952Z,99.90
2023-03-13T06:07:45.623Z,99.90
2023-03-13T06:10:12.707Z,99.90
2023-03-13T06:12:39.362Z,99.90
2023-03-13T06:15:07.286Z,99.90
2023-03-13T06:17:34.014Z,99.90
2023-03-13T06:20:00.663Z,99.90
2023-03-13T06:22:27.451Z,99.90
2023-03-13T06:24:54.117Z,99.90
2023-03-13T06:27:20.833Z,99.90
2023-03-13T06:29:47.498Z,99.90
2023-03-13T06:32:14.297Z,99.90
2023-03-13T06:34:41.004Z,99.90
2023-03-13T06:37:07.715Z,99.90
2023-03-13T06:39:34.457Z,99.90
2023-03-13T06:42:01.248Z,99.90
2023-03-13T06:44:27.958Z,99.90
2023-03-13T06:46:54.722Z,99.90
2023-03-13T06:49:21.441Z,99.90
2023-03-13T06:51:48.075Z,99.90
2023-03-13T06:54:14.888Z,99.90
2023-03-13T06:56:41.574Z,99.90
2023-03-13T06:59:08.230Z,99.90
2023-03-13T07:01:34.887Z,99.90
2023-03-13T07:04:01.650Z,99.90
2023-03-13T07:06:28.339Z,99.90
2023-03-13T07:08:55.145Z,99.90
2023-03-13T07:11:21.895Z,99.90
2023-03-13T07:13:48.524Z,99.90
2023-03-13T07:16:15.408Z,99.90
2023-03-13T07:18:42.266Z,99.90
2023-03-13T07:21:10.335Z,99.90
2023-03-13T07:23:37.033Z,99.90
2023-03-13T07:26:07.502Z,99.90
2023-03-13T07:28:37.328Z,99.90
2023-03-13T07:31:08.282Z,99.90
2023-03-13T07:33:35.257Z,99.90
2023-03-13T07:36:02.439Z,99.90
2023-03-13T07:38:29.124Z,99.90
2023-03-13T07:40:57.452Z,99.90
2023-03-13T07:43:25.051Z,99.90
2023-03-13T07:45:53.706Z,99.90
2023-03-13T07:48:21.377Z,99.90
2023-03-13T07:50:48.848Z,99.90
2023-03-13T07:53:21.045Z,99.90
2023-03-13T07:55:58.986Z,99.90
2023-03-13T07:58:28.670Z,99.90
2023-03-13T08:00:55.730Z,99.90
2023-03-13T08:03:23.410Z,99.90
2023-03-13T08:06:09.888Z,99.90
2023-03-13T08:08:37.930Z,99.90
2023-03-13T08:11:09.133Z,99.90
2023-03-13T08:13:36.328Z,99.90
2023-03-13T08:16:08.194Z,99.90
2023-03-13T08:18:36.217Z,99.90
2023-03-13T08:21:05.187Z,99.90
2023-03-13T08:23:32.551Z,99.90
2023-03-13T08:26:03.547Z,99.90
2023-03-13T08:28:30.326Z,99.90
2023-03-13T08:30:57.008Z,99.90
2023-03-13T08:33:23.841Z,99.90
2023-03-13T08:35:50.621Z,99.90
2023-03-13T08:38:18.445Z,99.90
2023-03-13T08:40:45.081Z,99.90
2023-03-13T08:43:11.956Z,99.90
2023-03-13T08:45:38.576Z,99.90
2023-03-13T08:48:05.314Z,99.90
2023-03-13T08:50:31.919Z,99.90
2023-03-13T08:52:58.596Z,99.90
2023-03-13T08:55:26.558Z,99.90
2023-03-13T08:57:53.269Z,99.90
2023-03-13T09:00:20.317Z,99.90
2023-03-13T09:02:47.017Z,99.90
2023-03-13T09:05:13.849Z,99.90
2023-03-13T09:07:40.839Z,99.90
2023-03-13T09:10:08.084Z,99.90
2023-03-13T09:12:35.042Z,99.90
2023-03-13T09:15:01.745Z,99.90
2023-03-13T09:17:28.387Z,99.90
2023-03-13T09:20:00.617Z,99.90
2023-03-13T09:22:27.949Z,99.90
2023-03-13T09:24:54.669Z,99.90
2023-03-13T09:27:21.327Z,99.90
2023-03-13T09:29:47.989Z,99.90
2023-03-13T09:32:14.704Z,99.90
2023-03-13T09:34:43.127Z,99.90
2023-03-13T09:37:09.814Z,99.90
2023-03-13T09:39:37.092Z,99.90
2023-03-13T09:42:22.698Z,99.90
2023-03-13T09:45:04.015Z,99.90
2023-03-13T09:47:41.291Z,99.40
2023-03-13T09:50:18.014Z,97.80
2023-03-13T09:52:44.913Z,94.80
2023-03-13T09:55:30.964Z,91.60
2023-03-13T09:58:10.519Z,90.00
2023-03-13T10:00:40.908Z,89.70
2023-03-13T10:03:11.829Z,89.30
2023-03-13T10:05:49.370Z,90.50
2023-03-13T10:08:23.058Z,91.10
2023-03-13T10:10:58.918Z,91.90
2023-03-13T10:13:53.493Z,92.40
2023-03-13T10:16:27.257Z,93.00
2023-03-13T10:18:57.068Z,93.80
2023-03-13T10:21:32.052Z,94.50
2023-03-13T10:24:06.028Z,94.90
2023-03-13T10:26:36.162Z,95.70
2023-03-13T10:29:17.172Z,95.40
2023-03-13T10:31:50.307Z,95.90
2023-03-13T10:34:17.007Z,96.10
2023-03-13T10:36:46.895Z,96.70
2023-03-13T10:39:30.087Z,96.80
2023-03-13T10:42:10.655Z,97.30
2023-03-13T10:44:37.709Z,96.90
2023-03-13T10:47:04.944Z,96.80
2023-03-13T10:49:32.404Z,97.10
2023-03-13T10:52:02.687Z,96.90
2023-03-13T10:54:30.904Z,97.10
2023-03-13T10:57:18.577Z,97.20
2023-03-13T10:59:48.756Z,97.40
2023-03-13T11:02:31.839Z,97.50
2023-03-13T11:04:59.810Z,97.60
2023-03-13T11:07:30.827Z,97.80
2023-03-13T11:10:19.659Z,97.90
2023-03-13T11:12:49.294Z,97.70
2023-03-13T11:15:20.308Z,96.90
2023-03-13T11:18:01.216Z,96.20
2023-03-13T11:20:32.949Z,95.70
2023-03-13T11:23:21.294Z,95.40
2023-03-13T11:26:27.807Z,94.20
2023-03-13T11:29:22.708Z,93.60
2023-03-13T11:31:54.492Z,92.40
2023-03-13T11:34:25.738Z,91.30
2023-03-13T11:36:59.295Z,90.10
2023-03-13T11:39:46.880Z,90.30
2023-03-13T11:42:40.160Z,90.60
2023-03-13T11:45:12.159Z,91.10
2023-03-13T11:47:53.885Z,90.80
2023-03-13T11:50:42.428Z,91.60
2023-03-13T11:53:30.090Z,92.40
2023-03-13T11:56:07.936Z,92.70
2023-03-13T11:58:54.917Z,92.50
2023-03-13T12:01:27.628Z,92.30
2023-03-13T12:04:00.157Z,92.20
2023-03-13T12:06:47.174Z,92.10
2023-03-13T12:09:25.723Z,92.20
2023-03-13T12:12:03.415Z,92.10
2023-03-13T12:14:43.740Z,91.30
2023-03-13T12:17:22.893Z,91.00
2023-03-13T12:20:12.328Z,89.00
2023-03-13T12:22:44.926Z,87.30
2023-03-13T12:25:20.015Z,89.00
2023-03-13T12:27:51.920Z,87.20
2023-03-13T12:30:40.915Z,79.80
2023-03-13T12:33:17.361Z,73.10
2023-03-13T12:35:53.159Z,70.60
2023-03-13T12:38:26.245Z,70.40
2023-03-13T12:41:12.936Z,63.80
2023-03-13T12:43:42.706Z,62.40
2023-03-13T12:46:22.242Z,59.30
2023-03-13T12:49:07.719Z,55.20
2023-03-13T12:51:54.766Z,50.50
2023-03-13T12:54:22.446Z,49.60
2023-03-13T12:57:29.127Z,48.60
2023-03-13T13:00:00.216Z,50.70
2023-03-13T13:02:30.516Z,51.20
2023-03-13T13:05:00.161Z,48.80
2023-03-13T13:07:34.220Z,51.00
2023-03-13T13:10:21.122Z,51.50
2023-03-13T13:13:15.142Z,53.30
2023-03-13T13:15:58.637Z,54.90
2023-03-13T13:18:28.331Z,55.50
2023-03-13T13:21:02.488Z,54.90
2023-03-13T13:23:34.592Z,54.40
2023-03-13T13:26:29.636Z,55.30
2023-03-13T13:29:02.038Z,53.60
2023-03-13T13:31:49.442Z,52.50
2023-03-13T13:34:31.794Z,51.50
2023-03-13T13:37:01.643Z,50.70
2023-03-13T13:39:48.158Z,49.00
2023-03-13T13:42:36.649Z,48.00
2023-03-13T13:45:04.854Z,46.40
2023-03-13T13:47:33.756Z,44.80
2023-03-13T13:50:01.274Z,44.10
2023-03-13T13:52:43.539Z,44.70
2023-03-13T13:55:30.286Z,43.70
2023-03-13T13:58:10.754Z,43.90
2023-03-13T14:00:45.636Z,44.00
2023-03-13T14:03:23.358Z,44.80
2023-03-13T14:05:55.239Z,46.60
2023-03-13T14:08:27.308Z,48.40
2023-03-13T14:11:25.000Z,50.60
2023-03-13T14:14:11.691Z,53.20
2023-03-13T14:16:39.340Z,55.50
2023-03-13T14:19:19.350Z,56.70
2023-03-13T14:21:46.052Z,58.10
2023-03-13T14:24:14.727Z,58.60
2023-03-13T14:26:43.733Z,58.90
2023-03-13T14:29:17.839Z,60.00
2023-03-13T14:31:52.881Z,60.60
2023-03-13T14:34:19.947Z,61.80
2023-03-13T14:36:51.462Z,62.20
2023-03-13T14:39:39.988Z,62.90
2023-03-13T14:42:11.857Z,63.20
2023-03-13T14:44:40.189Z,63.40
2023-03-13T14:47:12.219Z,61.20
2023-03-13T14:49:39.015Z,59.00
2023-03-13T14:52:17.197Z,56.90
2023-03-13T14:55:04.424Z,56.70
2023-03-13T14:57:32.510Z,53.30
2023-03-13T15:00:34.940Z,50.00
2023-03-13T15:03:17.260Z,47.30
2023-03-13T15:05:46.676Z,47.00
2023-03-13T15:08:17.164Z,47.90
2023-03-13T15:10:44.296Z,48.20
2023-03-13T15:13:23.474Z,47.50
2023-03-13T15:15:51.087Z,44.60
2023-03-13T15:18:20.916Z,44.40
2023-03-13T15:20:52.524Z,44.30
2023-03-13T15:23:19.799Z,44.10
2023-03-13T15:25:47.059Z,44.60
2023-03-13T15:28:16.657Z,45.30
2023-03-13T15:30:45.021Z,45.10
2023-03-13T15:33:15.828Z,46.40
2023-03-13T15:35:44.265Z,47.80
2023-03-13T15:38:14.831Z,46.90
2023-03-13T15:40:42.356Z,46.80
2023-03-13T15:43:09.572Z,46.20
2023-03-13T15:45:37.997Z,45.70
2023-03-13T15:48:13.630Z,45.00
2023-03-13T15:50:40.244Z,45.70
2023-03-13T15:53:17.181Z,45.70
2023-03-13T15:55:43.879Z,45.50
2023-03-13T16:00:40.965Z,44.10
2023-03-13T16:03:17.417Z,45.00
2023-03-13T16:05:44.113Z,44.60
2023-03-13T16:08:29.199Z,46.10
2023-03-13T16:11:00.664Z,45.40
2023-03-13T16:15:54.579Z,48.30
2023-03-13T16:18:23.607Z,51.30
2023-03-13T16:23:17.943Z,55.40
2023-03-13T16:25:45.784Z,56.50
2023-03-13T16:28:13.868Z,58.30
2023-03-13T16:30:43.552Z,58.50
2023-03-13T16:33:10.903Z,59.30
2023-03-13T16:35:38.220Z,60.50
2023-03-13T16:38:08.198Z,62.10
2023-03-13T16:40:35.200Z,65.20
2023-03-13T16:43:02.432Z,66.40
2023-03-13T16:45:29.228Z,67.20
2023-03-13T16:55:18.875Z,69.80
2023-03-13T16:57:45.939Z,70.50
2023-03-13T17:24:59.443Z,75.00
2023-03-13T17:32:21.301Z,76.90
2023-03-13T17:42:11.505Z,79.30
2023-03-13T17:47:17.760Z,81.40
2023-03-13T18:04:42.537Z,91.10
2023-03-13T18:37:03.899Z,95.70
2023-03-13T19:21:55.563Z,93.50
2023-03-13T20:55:34.129Z,99.90
2023-03-13T21:25:07.988Z,99.90
2023-03-13T21:32:30.046Z,99.90
2023-03-13T21:37:23.903Z,99.90
2023-03-13T22:16:55.817Z,99.90
2023-03-13T22:19:22.526Z,99.90
2023-03-13T22:24:16.309Z,99.90
2023-03-13T22:26:42.992Z,99.90
